Terminal Aerodrome Forecast
Issued by NWS

Home | Current Version | Previous Version | Text Only | Print | Product List | Glossary Off
Versions: 1 2 3 4 5 6 7 8 9 10 11 12 13 14 15 16 17

000
FTUS45 KGGW 251100 RRA
TAFSDY
TAF
KSDY 251143Z 2512/2612 31012KT P6SM BKN025 BKN050
     FM260000 31007KT P6SM BKN200
     FM260300 00000KT P6SM BKN250
     FM260600 VRB04KT P6SM VCSH OVC080
      AMD LTD TO CLD VIS AND WIND=

USA.gov is the U.S. government's official web portal to all federal, state and local government web resources and services.